sensor_id;sensor_type;location;lat;lon;timestamp;P1;durP1;ratioP1;P2;durP2;ratioP2
25780;SDS011;13626;48.128;11.628;2023-03-01T00:01:37;22.80;;;12.88;;
25780;SDS011;13626;48.128;11.628;2023-03-01T00:04:04;24.70;;;13.13;;
25780;SDS011;13626;48.128;11.628;2023-03-01T00:06:31;24.45;;;12.88;;
25780;SDS011;13626;48.128;11.628;2023-03-01T00:08:59;22.83;;;12.60;;
25780;SDS011;13626;48.128;11.628;2023-03-01T00:11:27;23.52;;;13.10;;
25780;SDS011;13626;48.128;11.628;2023-03-01T00:13:55;25.35;;;13.25;;
25780;SDS011;13626;48.128;11.628;2023-03-01T00:16:33;23.20;;;12.70;;
25780;SDS011;13626;48.128;11.628;2023-03-01T00:19:01;25.50;;;14.13;;
25780;SDS011;13626;48.128;11.628;2023-03-01T00:21:28;23.08;;;13.52;;
25780;SDS011;13626;48.128;11.628;2023-03-01T00:23:56;23.58;;;13.52;;
25780;SDS011;13626;48.128;11.628;2023-03-01T00:26:25;22.10;;;12.75;;
25780;SDS011;13626;48.128;11.628;2023-03-01T00:28:52;23.25;;;13.15;;
25780;SDS011;13626;48.128;11.628;2023-03-01T00:31:22;26.55;;;14.48;;
25780;SDS011;13626;48.128;11.628;2023-03-01T00:33:52;22.80;;;12.95;;
25780;SDS011;13626;48.128;11.628;2023-03-01T00:36:24;24.70;;;13.75;;
25780;SDS011;13626;48.128;11.628;2023-03-01T00:38:51;26.13;;;13.60;;
25780;SDS011;13626;48.128;11.628;2023-03-01T00:41:19;23.08;;;13.57;;
25780;SDS011;13626;48.128;11.628;2023-03-01T00:43:46;26.88;;;14.95;;
25780;SDS011;13626;48.128;11.628;2023-03-01T00:46:17;26.42;;;13.57;;
25780;SDS011;13626;48.128;11.628;2023-03-01T00:48:45;24.38;;;13.38;;
25780;SDS011;13626;48.128;11.628;2023-03-01T00:53:39;24.75;;;13.27;;
25780;SDS011;13626;48.128;11.628;2023-03-01T00:56:08;27.33;;;14.75;;
25780;SDS011;13626;48.128;11.628;2023-03-01T00:58:35;22.33;;;12.30;;
25780;SDS011;13626;48.128;11.628;2023-03-01T01:01:10;25.95;;;13.55;;
25780;SDS011;13626;48.128;11.628;2023-03-01T01:04:04;29.73;;;14.13;;
25780;SDS011;13626;48.128;11.628;2023-03-01T01:06:33;28.77;;;13.00;;
25780;SDS011;13626;48.128;11.628;2023-03-01T01:09:01;23.60;;;13.10;;
25780;SDS011;13626;48.128;11.628;2023-03-01T01:11:28;23.50;;;13.10;;
25780;SDS011;13626;48.128;11.628;2023-03-01T01:13:56;23.38;;;13.50;;
25780;SDS011;13626;48.128;11.628;2023-03-01T01:16:24;25.30;;;13.65;;
25780;SDS011;13626;48.128;11.628;2023-03-01T01:18:52;25.10;;;13.50;;
25780;SDS011;13626;48.128;11.628;2023-03-01T01:21:20;25.75;;;12.85;;
25780;SDS011;13626;48.128;11.628;2023-03-01T01:23:49;27.80;;;14.18;;
25780;SDS011;13626;48.128;11.628;2023-03-01T01:26:18;23.33;;;13.85;;
25780;SDS011;13626;48.128;11.628;2023-03-01T01:28:45;25.10;;;14.00;;
25780;SDS011;13626;48.128;11.628;2023-03-01T01:31:13;28.60;;;14.05;;
25780;SDS011;13626;48.128;11.628;2023-03-01T01:33:40;25.02;;;13.13;;
25780;SDS011;13626;48.128;11.628;2023-03-01T01:36:07;27.55;;;14.18;;
25780;SDS011;13626;48.128;11.628;2023-03-01T01:38:36;25.45;;;14.38;;
25780;SDS011;13626;48.128;11.628;2023-03-01T01:41:04;25.65;;;13.70;;
25780;SDS011;13626;48.128;11.628;2023-03-01T01:43:36;25.88;;;13.93;;
25780;SDS011;13626;48.128;11.628;2023-03-01T01:46:13;24.38;;;13.65;;
25780;SDS011;13626;48.128;11.628;2023-03-01T01:48:43;22.80;;;13.23;;
25780;SDS011;13626;48.128;11.628;2023-03-01T01:51:13;24.75;;;13.55;;
25780;SDS011;13626;48.128;11.628;2023-03-01T01:53:40;27.45;;;13.70;;
25780;SDS011;13626;48.128;11.628;2023-03-01T01:56:09;24.67;;;13.95;;
25780;SDS011;13626;48.128;11.628;2023-03-01T01:58:38;24.50;;;14.10;;
25780;SDS011;13626;48.128;11.628;2023-03-01T02:01:06;24.20;;;13.23;;
25780;SDS011;13626;48.128;11.628;2023-03-01T02:03:34;22.02;;;13.85;;
25780;SDS011;13626;48.128;11.628;2023-03-01T02:08:38;23.10;;;14.00;;
25780;SDS011;13626;48.128;11.628;2023-03-01T02:11:08;26.10;;;13.98;;
25780;SDS011;13626;48.128;11.628;2023-03-01T02:13:35;23.27;;;14.10;;
25780;SDS011;13626;48.128;11.628;2023-03-01T02:16:10;24.63;;;14.32;;
25780;SDS011;13626;48.128;11.628;2023-03-01T02:18:38;25.95;;;13.88;;
25780;SDS011;13626;48.128;11.628;2023-03-01T02:24:00;23.92;;;13.32;;
25780;SDS011;13626;48.128;11.628;2023-03-01T02:26:40;26.90;;;13.75;;
25780;SDS011;13626;48.128;11.628;2023-03-01T02:29:09;28.67;;;14.95;;
25780;SDS011;13626;48.128;11.628;2023-03-01T02:31:36;26.65;;;14.25;;
25780;SDS011;13626;48.128;11.628;2023-03-01T02:34:17;23.98;;;13.32;;
25780;SDS011;13626;48.128;11.628;2023-03-01T02:36:48;27.90;;;14.95;;
25780;SDS011;13626;48.128;11.628;2023-03-01T02:39:59;27.30;;;14.10;;
25780;SDS011;13626;48.128;11.628;2023-03-01T02:42:09;25.15;;;14.30;;
25780;SDS011;13626;48.128;11.628;2023-03-01T02:44:38;22.70;;;12.40;;
25780;SDS011;13626;48.128;11.628;2023-03-01T02:47:05;24.73;;;13.25;;
25780;SDS011;13626;48.128;11.628;2023-03-01T02:49:34;24.17;;;13.23;;
25780;SDS011;13626;48.128;11.628;2023-03-01T02:54:34;26.58;;;14.15;;
25780;SDS011;13626;48.128;11.628;2023-03-01T02:57:03;20.92;;;12.30;;
25780;SDS011;13626;48.128;11.628;2023-03-01T02:59:32;22.65;;;13.38;;
25780;SDS011;13626;48.128;11.628;2023-03-01T03:02:06;26.30;;;13.63;;
25780;SDS011;13626;48.128;11.628;2023-03-01T03:04:33;25.10;;;14.73;;
25780;SDS011;13626;48.128;11.628;2023-03-01T03:07:01;29.33;;;13.40;;
25780;SDS011;13626;48.128;11.628;2023-03-01T03:09:28;23.25;;;13.32;;
25780;SDS011;13626;48.128;11.628;2023-03-01T03:11:55;22.85;;;12.77;;
25780;SDS011;13626;48.128;11.628;2023-03-01T03:14:22;22.55;;;13.23;;
25780;SDS011;13626;48.128;11.628;2023-03-01T03:16:50;26.08;;;13.27;;
25780;SDS011;13626;48.128;11.628;2023-03-01T03:19:17;23.90;;;13.43;;
25780;SDS011;13626;48.128;11.628;2023-03-01T03:21:45;23.45;;;13.00;;
25780;SDS011;13626;48.128;11.628;2023-03-01T03:24:12;25.67;;;13.73;;
25780;SDS011;13626;48.128;11.628;2023-03-01T03:26:40;23.38;;;13.00;;
25780;SDS011;13626;48.128;11.628;2023-03-01T03:29:07;28.92;;;13.70;;
25780;SDS011;13626;48.128;11.628;2023-03-01T03:31:34;22.20;;;13.27;;
25780;SDS011;13626;48.128;11.628;2023-03-01T03:34:01;27.00;;;13.93;;
25780;SDS011;13626;48.128;11.628;2023-03-01T03:36:28;25.35;;;13.95;;
25780;SDS011;13626;48.128;11.628;2023-03-01T03:38:56;24.35;;;13.27;;
25780;SDS011;13626;48.128;11.628;2023-03-01T03:41:23;23.58;;;13.57;;
25780;SDS011;13626;48.128;11.628;2023-03-01T03:43:50;20.73;;;12.48;;
25780;SDS011;13626;48.128;11.628;2023-03-01T03:46:17;23.08;;;13.30;;
25780;SDS011;13626;48.128;11.628;2023-03-01T03:48:45;27.88;;;14.07;;
25780;SDS011;13626;48.128;11.628;2023-03-01T03:51:13;26.60;;;13.18;;
25780;SDS011;13626;48.128;11.628;2023-03-01T03:53:40;24.15;;;14.85;;
25780;SDS011;13626;48.128;11.628;2023-03-01T03:56:07;24.08;;;13.77;;
25780;SDS011;13626;48.128;11.628;2023-03-01T03:58:35;25.55;;;12.88;;
25780;SDS011;13626;48.128;11.628;2023-03-01T04:01:02;26.13;;;14.13;;
25780;SDS011;13626;48.128;11.628;2023-03-01T04:03:30;25.60;;;14.27;;
25780;SDS011;13626;48.128;11.628;2023-03-01T04:05:59;30.02;;;14.60;;
25780;SDS011;13626;48.128;11.628;2023-03-01T04:08:26;25.40;;;14.52;;
25780;SDS011;13626;48.128;11.628;2023-03-01T04:10:58;31.27;;;14.25;;
25780;SDS011;13626;48.128;11.628;2023-03-01T04:13:26;26.55;;;14.75;;
25780;SDS011;13626;48.128;11.628;2023-03-01T04:15:54;25.23;;;13.80;;
25780;SDS011;13626;48.128;11.628;2023-03-01T04:18:22;28.40;;;15.10;;
25780;SDS011;13626;48.128;11.628;2023-03-01T04:20:50;24.55;;;14.23;;
25780;SDS011;13626;48.128;11.628;2023-03-01T04:23:21;25.48;;;13.93;;
25780;SDS011;13626;48.128;11.628;2023-03-01T04:25:55;25.88;;;13.40;;
25780;SDS011;13626;48.128;11.628;2023-03-01T04:28:24;29.80;;;14.68;;
25780;SDS011;13626;48.128;11.628;2023-03-01T04:30:53;25.80;;;14.55;;
25780;SDS011;13626;48.128;11.628;2023-03-01T04:33:20;28.80;;;14.68;;
25780;SDS011;13626;48.128;11.628;2023-03-01T04:35:47;24.67;;;13.80;;
25780;SDS011;13626;48.128;11.628;2023-03-01T04:38:16;24.70;;;13.32;;
25780;SDS011;13626;48.128;11.628;2023-03-01T04:40:43;26.25;;;14.43;;
25780;SDS011;13626;48.128;11.628;2023-03-01T04:43:11;25.20;;;13.98;;
25780;SDS011;13626;48.128;11.628;2023-03-01T04:45:41;25.52;;;13.40;;
25780;SDS011;13626;48.128;11.628;2023-03-01T04:48:09;27.65;;;14.52;;
25780;SDS011;13626;48.128;11.628;2023-03-01T04:50:36;28.90;;;14.13;;
25780;SDS011;13626;48.128;11.628;2023-03-01T04:53:03;27.38;;;14.27;;
25780;SDS011;13626;48.128;11.628;2023-03-01T04:55:30;26.70;;;14.40;;
25780;SDS011;13626;48.128;11.628;2023-03-01T04:57:58;27.42;;;14.98;;
25780;SDS011;13626;48.128;11.628;2023-03-01T05:00:25;25.80;;;14.25;;
25780;SDS011;13626;48.128;11.628;2023-03-01T05:02:56;26.50;;;13.90;;
25780;SDS011;13626;48.128;11.628;2023-03-01T05:07:52;25.55;;;13.85;;
25780;SDS011;13626;48.128;11.628;2023-03-01T05:10:20;26.38;;;14.07;;
25780;SDS011;13626;48.128;11.628;2023-03-01T05:12:47;27.30;;;14.05;;
25780;SDS011;13626;48.128;11.628;2023-03-01T05:15:14;26.27;;;14.10;;
25780;SDS011;13626;48.128;11.628;2023-03-01T05:17:41;24.90;;;14.18;;
25780;SDS011;13626;48.128;11.628;2023-03-01T05:20:09;26.00;;;14.05;;
25780;SDS011;13626;48.128;11.628;2023-03-01T05:22:36;25.42;;;14.30;;
25780;SDS011;13626;48.128;11.628;2023-03-01T05:25:04;28.15;;;14.40;;
25780;SDS011;13626;48.128;11.628;2023-03-01T05:27:33;27.45;;;14.38;;
25780;SDS011;13626;48.128;11.628;2023-03-01T05:30:01;25.25;;;13.85;;
25780;SDS011;13626;48.128;11.628;2023-03-01T05:32:40;24.83;;;13.13;;
25780;SDS011;13626;48.128;11.628;2023-03-01T05:35:09;29.00;;;13.88;;
25780;SDS011;13626;48.128;11.628;2023-03-01T05:37:42;30.13;;;14.75;;
25780;SDS011;13626;48.128;11.628;2023-03-01T05:40:11;33.00;;;15.10;;
25780;SDS011;13626;48.128;11.628;2023-03-01T05:42:45;26.20;;;14.30;;
25780;SDS011;13626;48.128;11.628;2023-03-01T05:45:13;27.52;;;13.75;;
25780;SDS011;13626;48.128;11.628;2023-03-01T05:47:41;34.78;;;14.52;;
25780;SDS011;13626;48.128;11.628;2023-03-01T05:52:38;28.10;;;14.18;;
25780;SDS011;13626;48.128;11.628;2023-03-01T05:55:06;27.92;;;14.85;;
25780;SDS011;13626;48.128;11.628;2023-03-01T05:57:34;27.63;;;14.32;;
25780;SDS011;13626;48.128;11.628;2023-03-01T06:00:01;28.88;;;15.02;;
25780;SDS011;13626;48.128;11.628;2023-03-01T06:02:29;28.52;;;15.27;;
25780;SDS011;13626;48.128;11.628;2023-03-01T06:04:56;26.42;;;14.52;;
25780;SDS011;13626;48.128;11.628;2023-03-01T06:07:23;30.23;;;14.43;;
25780;SDS011;13626;48.128;11.628;2023-03-01T06:09:50;29.27;;;15.13;;
25780;SDS011;13626;48.128;11.628;2023-03-01T06:12:18;24.58;;;13.85;;
25780;SDS011;13626;48.128;11.628;2023-03-01T06:14:45;26.27;;;14.27;;
25780;SDS011;13626;48.128;11.628;2023-03-01T06:17:13;27.20;;;15.05;;
25780;SDS011;13626;48.128;11.628;2023-03-01T06:19:41;26.15;;;14.38;;
25780;SDS011;13626;48.128;11.628;2023-03-01T06:22:08;28.67;;;14.77;;
25780;SDS011;13626;48.128;11.628;2023-03-01T06:24:35;24.98;;;14.05;;
25780;SDS011;13626;48.128;11.628;2023-03-01T06:27:02;29.83;;;14.27;;
25780;SDS011;13626;48.128;11.628;2023-03-01T06:29:30;27.90;;;14.43;;
25780;SDS011;13626;48.128;11.628;2023-03-01T06:31:57;26.13;;;14.38;;
25780;SDS011;13626;48.128;11.628;2023-03-01T06:34:24;27.10;;;14.50;;
25780;SDS011;13626;48.128;11.628;2023-03-01T06:36:51;26.73;;;14.07;;
25780;SDS011;13626;48.128;11.628;2023-03-01T06:39:20;27.92;;;15.23;;
25780;SDS011;13626;48.128;11.628;2023-03-01T06:41:47;28.08;;;14.93;;
25780;SDS011;13626;48.128;11.628;2023-03-01T06:44:14;26.85;;;14.18;;
25780;SDS011;13626;48.128;11.628;2023-03-01T06:46:41;27.50;;;12.95;;
25780;SDS011;13626;48.128;11.628;2023-03-01T06:49:08;27.38;;;14.73;;
25780;SDS011;13626;48.128;11.628;2023-03-01T06:51:36;28.73;;;14.35;;
25780;SDS011;13626;48.128;11.628;2023-03-01T06:54:04;27.63;;;14.45;;
25780;SDS011;13626;48.128;11.628;2023-03-01T06:56:31;30.42;;;14.63;;
25780;SDS011;13626;48.128;11.628;2023-03-01T06:58:59;27.83;;;14.80;;
25780;SDS011;13626;48.128;11.628;2023-03-01T07:01:26;27.00;;;14.07;;
25780;SDS011;13626;48.128;11.628;2023-03-01T07:03:53;29.65;;;15.57;;
25780;SDS011;13626;48.128;11.628;2023-03-01T07:06:21;29.50;;;15.13;;
25780;SDS011;13626;48.128;11.628;2023-03-01T07:08:49;29.50;;;14.93;;
25780;SDS011;13626;48.128;11.628;2023-03-01T07:11:16;29.77;;;15.55;;
25780;SDS011;13626;48.128;11.628;2023-03-01T07:13:43;27.30;;;14.50;;
25780;SDS011;13626;48.128;11.628;2023-03-01T07:16:10;29.00;;;13.75;;
25780;SDS011;13626;48.128;11.628;2023-03-01T07:18:38;30.52;;;15.57;;
25780;SDS011;13626;48.128;11.628;2023-03-01T07:21:06;31.90;;;15.70;;
25780;SDS011;13626;48.128;11.628;2023-03-01T07:23:33;32.40;;;15.50;;
25780;SDS011;13626;48.128;11.628;2023-03-01T07:26:01;27.95;;;15.07;;
25780;SDS011;13626;48.128;11.628;2023-03-01T07:28:28;29.95;;;14.75;;
25780;SDS011;13626;48.128;11.628;2023-03-01T07:31:00;31.30;;;15.45;;
25780;SDS011;13626;48.128;11.628;2023-03-01T07:33:27;29.58;;;15.05;;
25780;SDS011;13626;48.128;11.628;2023-03-01T07:35:58;29.42;;;15.20;;
25780;SDS011;13626;48.128;11.628;2023-03-01T07:38:26;32.88;;;15.38;;
25780;SDS011;13626;48.128;11.628;2023-03-01T07:40:54;29.88;;;14.45;;
25780;SDS011;13626;48.128;11.628;2023-03-01T07:43:25;34.33;;;15.98;;
25780;SDS011;13626;48.128;11.628;2023-03-01T07:45:52;31.05;;;15.35;;
25780;SDS011;13626;48.128;11.628;2023-03-01T07:48:19;26.40;;;14.38;;
25780;SDS011;13626;48.128;11.628;2023-03-01T07:50:46;31.00;;;15.95;;
25780;SDS011;13626;48.128;11.628;2023-03-01T07:53:13;30.23;;;15.48;;
25780;SDS011;13626;48.128;11.628;2023-03-01T07:55:40;29.52;;;15.48;;
25780;SDS011;13626;48.128;11.628;2023-03-01T07:58:08;31.23;;;15.13;;
25780;SDS011;13626;48.128;11.628;2023-03-01T08:00:35;28.48;;;14.57;;
25780;SDS011;13626;48.128;11.628;2023-03-01T08:03:02;30.48;;;16.10;;
25780;SDS011;13626;48.128;11.628;2023-03-01T08:05:29;29.98;;;14.98;;
25780;SDS011;13626;48.128;11.628;2023-03-01T08:07:56;32.08;;;15.00;;
25780;SDS011;13626;48.128;11.628;2023-03-01T08:10:24;25.52;;;15.00;;
25780;SDS011;13626;48.128;11.628;2023-03-01T08:12:51;30.13;;;15.73;;
25780;SDS011;13626;48.128;11.628;2023-03-01T08:15:19;28.30;;;16.40;;
25780;SDS011;13626;48.128;11.628;2023-03-01T08:17:48;30.20;;;15.88;;
25780;SDS011;13626;48.128;11.628;2023-03-01T08:20:16;28.33;;;15.13;;
25780;SDS011;13626;48.128;11.628;2023-03-01T08:22:45;31.27;;;16.23;;
25780;SDS011;13626;48.128;11.628;2023-03-01T08:25:12;27.02;;;14.48;;
25780;SDS011;13626;48.128;11.628;2023-03-01T08:27:39;28.95;;;14.77;;
25780;SDS011;13626;48.128;11.628;2023-03-01T08:30:06;27.40;;;14.82;;
25780;SDS011;13626;48.128;11.628;2023-03-01T08:32:38;27.77;;;14.93;;
25780;SDS011;13626;48.128;11.628;2023-03-01T08:35:05;24.23;;;13.68;;
25780;SDS011;13626;48.128;11.628;2023-03-01T08:37:32;31.60;;;15.27;;
25780;SDS011;13626;48.128;11.628;2023-03-01T08:40:00;30.48;;;15.10;;
25780;SDS011;13626;48.128;11.628;2023-03-01T08:42:27;27.48;;;15.70;;
25780;SDS011;13626;48.128;11.628;2023-03-01T08:44:54;25.48;;;14.57;;
25780;SDS011;13626;48.128;11.628;2023-03-01T08:47:22;29.75;;;15.60;;
25780;SDS011;13626;48.128;11.628;2023-03-01T08:49:50;27.92;;;15.20;;
25780;SDS011;13626;48.128;11.628;2023-03-01T08:52:17;27.67;;;15.30;;
25780;SDS011;13626;48.128;11.628;2023-03-01T08:54:44;29.02;;;15.32;;
25780;SDS011;13626;48.128;11.628;2023-03-01T08:57:11;32.13;;;15.73;;
25780;SDS011;13626;48.128;11.628;2023-03-01T08:59:39;31.55;;;15.80;;
25780;SDS011;13626;48.128;11.628;2023-03-01T09:02:10;26.20;;;14.23;;
25780;SDS011;13626;48.128;11.628;2023-03-01T09:04:39;28.10;;;14.98;;
25780;SDS011;13626;48.128;11.628;2023-03-01T09:07:06;27.48;;;15.23;;
25780;SDS011;13626;48.128;11.628;2023-03-01T09:09:34;28.75;;;15.50;;
25780;SDS011;13626;48.128;11.628;2023-03-01T09:12:02;27.85;;;14.45;;
25780;SDS011;13626;48.128;11.628;2023-03-01T09:14:29;27.08;;;15.43;;
25780;SDS011;13626;48.128;11.628;2023-03-01T09:16:56;28.98;;;14.85;;
25780;SDS011;13626;48.128;11.628;2023-03-01T09:19:23;26.70;;;14.85;;
25780;SDS011;13626;48.128;11.628;2023-03-01T09:21:52;32.10;;;15.55;;
25780;SDS011;13626;48.128;11.628;2023-03-01T09:24:20;28.95;;;15.23;;
25780;SDS011;13626;48.128;11.628;2023-03-01T09:26:48;31.27;;;15.57;;
25780;SDS011;13626;48.128;11.628;2023-03-01T09:29:16;30.33;;;15.85;;
25780;SDS011;13626;48.128;11.628;2023-03-01T09:31:44;31.00;;;15.90;;
25780;SDS011;13626;48.128;11.628;2023-03-01T09:34:11;26.48;;;14.90;;
25780;SDS011;13626;48.128;11.628;2023-03-01T09:36:41;29.58;;;15.45;;
25780;SDS011;13626;48.128;11.628;2023-03-01T09:39:08;31.33;;;15.63;;
25780;SDS011;13626;48.128;11.628;2023-03-01T09:41:46;28.98;;;15.23;;
25780;SDS011;13626;48.128;11.628;2023-03-01T09:46:44;31.02;;;15.68;;
25780;SDS011;13626;48.128;11.628;2023-03-01T09:49:13;27.60;;;15.50;;
25780;SDS011;13626;48.128;11.628;2023-03-01T09:54:27;29.17;;;15.93;;
25780;SDS011;13626;48.128;11.628;2023-03-01T09:57:06;32.58;;;15.10;;
25780;SDS011;13626;48.128;11.628;2023-03-01T10:02:14;30.15;;;15.02;;
25780;SDS011;13626;48.128;11.628;2023-03-01T10:04:48;27.48;;;14.38;;
25780;SDS011;13626;48.128;11.628;2023-03-01T10:09:49;27.55;;;15.20;;
25780;SDS011;13626;48.128;11.628;2023-03-01T10:12:20;27.80;;;15.02;;
25780;SDS011;13626;48.128;11.628;2023-03-01T10:15:11;27.13;;;14.07;;
25780;SDS011;13626;48.128;11.628;2023-03-01T10:17:55;31.50;;;16.45;;
25780;SDS011;13626;48.128;11.628;2023-03-01T10:20:29;32.50;;;15.10;;
25780;SDS011;13626;48.128;11.628;2023-03-01T10:22:57;31.83;;;16.23;;
25780;SDS011;13626;48.128;11.628;2023-03-01T10:28:02;29.48;;;16.38;;
25780;SDS011;13626;48.128;11.628;2023-03-01T10:30:40;31.58;;;16.77;;
25780;SDS011;13626;48.128;11.628;2023-03-01T10:33:17;27.38;;;15.80;;
25780;SDS011;13626;48.128;11.628;2023-03-01T10:35:47;26.42;;;15.90;;
25780;SDS011;13626;48.128;11.628;2023-03-01T10:38:15;33.45;;;17.45;;
25780;SDS011;13626;48.128;11.628;2023-03-01T10:40:56;26.35;;;15.32;;
25780;SDS011;13626;48.128;11.628;2023-03-01T10:43:24;28.20;;;15.90;;
25780;SDS011;13626;48.128;11.628;2023-03-01T10:45:52;32.85;;;16.40;;
25780;SDS011;13626;48.128;11.628;2023-03-01T10:48:23;28.70;;;16.60;;
25780;SDS011;13626;48.128;11.628;2023-03-01T10:56:16;26.45;;;16.33;;
25780;SDS011;13626;48.128;11.628;2023-03-01T10:59:02;26.67;;;16.13;;
25780;SDS011;13626;48.128;11.628;2023-03-01T11:01:30;28.63;;;16.13;;
25780;SDS011;13626;48.128;11.628;2023-03-01T11:06:36;29.13;;;16.40;;
25780;SDS011;13626;48.128;11.628;2023-03-01T11:09:21;31.30;;;17.10;;
25780;SDS011;13626;48.128;11.628;2023-03-01T11:11:52;29.10;;;16.93;;
25780;SDS011;13626;48.128;11.628;2023-03-01T11:14:26;27.42;;;16.45;;
25780;SDS011;13626;48.128;11.628;2023-03-01T11:17:01;30.35;;;16.63;;
25780;SDS011;13626;48.128;11.628;2023-03-01T11:24:34;29.70;;;16.38;;
25780;SDS011;13626;48.128;11.628;2023-03-01T11:27:06;27.52;;;16.65;;
25780;SDS011;13626;48.128;11.628;2023-03-01T11:29:39;35.28;;;16.75;;
25780;SDS011;13626;48.128;11.628;2023-03-01T11:32:14;29.17;;;16.77;;
25780;SDS011;13626;48.128;11.628;2023-03-01T11:37:21;29.27;;;17.33;;
25780;SDS011;13626;48.128;11.628;2023-03-01T11:39:53;32.08;;;17.02;;
25780;SDS011;13626;48.128;11.628;2023-03-01T11:44:54;28.00;;;16.38;;
25780;SDS011;13626;48.128;11.628;2023-03-01T11:52:20;27.85;;;17.60;;
25780;SDS011;13626;48.128;11.628;2023-03-01T12:08:17;35.53;;;18.77;;
25780;SDS011;13626;48.128;11.628;2023-03-01T12:33:43;29.23;;;15.90;;
25780;SDS011;13626;48.128;11.628;2023-03-01T12:41:35;27.98;;;16.20;;
25780;SDS011;13626;48.128;11.628;2023-03-01T12:49:27;31.88;;;18.58;;
25780;SDS011;13626;48.128;11.628;2023-03-01T12:52:19;27.15;;;16.10;;
25780;SDS011;13626;48.128;11.628;2023-03-01T12:54:43;28.80;;;17.20;;
25780;SDS011;13626;48.128;11.628;2023-03-01T12:57:15;29.23;;;16.20;;
25780;SDS011;13626;48.128;11.628;2023-03-01T13:00:05;29.05;;;16.80;;
25780;SDS011;13626;48.128;11.628;2023-03-01T13:07:41;29.98;;;17.23;;
25780;SDS011;13626;48.128;11.628;2023-03-01T13:10:17;29.08;;;17.10;;
25780;SDS011;13626;48.128;11.628;2023-03-01T13:12:50;27.50;;;17.08;;
25780;SDS011;13626;48.128;11.628;2023-03-01T13:17:51;28.83;;;16.95;;
25780;SDS011;13626;48.128;11.628;2023-03-01T13:20:20;32.13;;;17.48;;
25780;SDS011;13626;48.128;11.628;2023-03-01T13:22:48;31.17;;;17.85;;
25780;SDS011;13626;48.128;11.628;2023-03-01T13:25:27;27.85;;;16.20;;
25780;SDS011;13626;48.128;11.628;2023-03-01T13:30:52;30.90;;;18.65;;
25780;SDS011;13626;48.128;11.628;2023-03-01T13:35:56;29.13;;;17.45;;
25780;SDS011;13626;48.128;11.628;2023-03-01T13:38:38;28.65;;;15.65;;
25780;SDS011;13626;48.128;11.628;2023-03-01T13:41:07;27.00;;;16.42;;
25780;SDS011;13626;48.128;11.628;2023-03-01T13:43:35;29.20;;;17.08;;
25780;SDS011;13626;48.128;11.628;2023-03-01T13:46:10;29.60;;;17.98;;
25780;SDS011;13626;48.128;11.628;2023-03-01T13:51:07;29.20;;;16.45;;
25780;SDS011;13626;48.128;11.628;2023-03-01T13:53:37;30.40;;;17.20;;
25780;SDS011;13626;48.128;11.628;2023-03-01T13:56:10;30.15;;;17.10;;
25780;SDS011;13626;48.128;11.628;2023-03-01T13:58:49;30.48;;;17.23;;
25780;SDS011;13626;48.128;11.628;2023-03-01T14:01:37;28.27;;;17.08;;
25780;SDS011;13626;48.128;11.628;2023-03-01T14:06:51;30.90;;;17.25;;
25780;SDS011;13626;48.128;11.628;2023-03-01T14:09:22;31.42;;;17.85;;
25780;SDS011;13626;48.128;11.628;2023-03-01T14:12:02;29.63;;;16.92;;
25780;SDS011;13626;48.128;11.628;2023-03-01T14:22:26;32.95;;;16.70;;
25780;SDS011;13626;48.128;11.628;2023-03-01T14:24:58;30.17;;;16.05;;
25780;SDS011;13626;48.128;11.628;2023-03-01T14:27:28;31.83;;;16.98;;
25780;SDS011;13626;48.128;11.628;2023-03-01T14:32:41;29.52;;;16.27;;
25780;SDS011;13626;48.128;11.628;2023-03-01T14:35:25;28.90;;;17.20;;
25780;SDS011;13626;48.128;11.628;2023-03-01T14:37:53;27.80;;;15.70;;
25780;SDS011;13626;48.128;11.628;2023-03-01T14:40:32;30.08;;;17.20;;
25780;SDS011;13626;48.128;11.628;2023-03-01T14:43:02;25.02;;;15.55;;
25780;SDS011;13626;48.128;11.628;2023-03-01T14:45:35;29.33;;;16.08;;
25780;SDS011;13626;48.128;11.628;2023-03-01T14:48:03;28.05;;;17.40;;
25780;SDS011;13626;48.128;11.628;2023-03-01T14:50:32;28.50;;;16.60;;
25780;SDS011;13626;48.128;11.628;2023-03-01T14:53:03;33.58;;;16.50;;
25780;SDS011;13626;48.128;11.628;2023-03-01T14:55:36;31.20;;;16.27;;
25780;SDS011;13626;48.128;11.628;2023-03-01T14:58:04;28.33;;;16.27;;
25780;SDS011;13626;48.128;11.628;2023-03-01T15:00:32;26.27;;;15.10;;
25780;SDS011;13626;48.128;11.628;2023-03-01T15:03:02;30.65;;;15.70;;
25780;SDS011;13626;48.128;11.628;2023-03-01T15:05:31;27.33;;;14.98;;
25780;SDS011;13626;48.128;11.628;2023-03-01T15:07:59;25.77;;;15.40;;
25780;SDS011;13626;48.128;11.628;2023-03-01T15:10:29;26.42;;;15.23;;
25780;SDS011;13626;48.128;11.628;2023-03-01T15:13:09;25.05;;;14.98;;
25780;SDS011;13626;48.128;11.628;2023-03-01T15:16:00;27.63;;;15.43;;
25780;SDS011;13626;48.128;11.628;2023-03-01T15:18:27;29.50;;;15.98;;
25780;SDS011;13626;48.128;11.628;2023-03-01T15:20:54;26.70;;;15.30;;
25780;SDS011;13626;48.128;11.628;2023-03-01T15:23:26;23.45;;;13.85;;
25780;SDS011;13626;48.128;11.628;2023-03-01T15:25:54;29.33;;;15.60;;
25780;SDS011;13626;48.128;11.628;2023-03-01T15:28:24;26.40;;;15.27;;
25780;SDS011;13626;48.128;11.628;2023-03-01T15:30:59;26.83;;;15.23;;
25780;SDS011;13626;48.128;11.628;2023-03-01T15:33:28;30.00;;;15.07;;
25780;SDS011;13626;48.128;11.628;2023-03-01T15:35:57;29.48;;;15.50;;
25780;SDS011;13626;48.128;11.628;2023-03-01T15:38:25;29.17;;;14.88;;
25780;SDS011;13626;48.128;11.628;2023-03-01T15:40:53;28.27;;;15.45;;
25780;SDS011;13626;48.128;11.628;2023-03-01T15:46:13;27.42;;;14.85;;
25780;SDS011;13626;48.128;11.628;2023-03-01T15:48:47;24.70;;;15.20;;
25780;SDS011;13626;48.128;11.628;2023-03-01T15:51:15;27.50;;;14.95;;
25780;SDS011;13626;48.128;11.628;2023-03-01T15:53:44;26.30;;;15.18;;
25780;SDS011;13626;48.128;11.628;2023-03-01T15:56:20;25.42;;;14.60;;
25780;SDS011;13626;48.128;11.628;2023-03-01T15:58:47;25.10;;;14.20;;
25780;SDS011;13626;48.128;11.628;2023-03-01T16:01:15;24.98;;;15.40;;
25780;SDS011;13626;48.128;11.628;2023-03-01T16:03:43;28.67;;;14.52;;
25780;SDS011;13626;48.128;11.628;2023-03-01T16:06:11;28.27;;;14.95;;
25780;SDS011;13626;48.128;11.628;2023-03-01T16:08:38;26.65;;;14.68;;
25780;SDS011;13626;48.128;11.628;2023-03-01T16:11:13;27.08;;;14.82;;
25780;SDS011;13626;48.128;11.628;2023-03-01T16:13:40;25.90;;;14.25;;
25780;SDS011;13626;48.128;11.628;2023-03-01T16:16:09;25.73;;;14.40;;
25780;SDS011;13626;48.128;11.628;2023-03-01T16:18:39;26.05;;;14.63;;
25780;SDS011;13626;48.128;11.628;2023-03-01T16:21:08;28.92;;;14.75;;
25780;SDS011;13626;48.128;11.628;2023-03-01T16:23:37;23.15;;;13.82;;
25780;SDS011;13626;48.128;11.628;2023-03-01T16:26:04;22.10;;;13.55;;
25780;SDS011;13626;48.128;11.628;2023-03-01T16:28:31;27.27;;;13.45;;
25780;SDS011;13626;48.128;11.628;2023-03-01T16:30:59;25.45;;;13.05;;
25780;SDS011;13626;48.128;11.628;2023-03-01T16:33:28;24.80;;;13.80;;